sensor_id;sensor_type;location;lat;lon;timestamp;temperature;humidity
29241;DHT22;16268;49.880;8.648;2023-03-01T00:01:25;0.70;99.90
29241;DHT22;16268;49.880;8.648;2023-03-01T00:03:51;0.70;99.90
29241;DHT22;16268;49.880;8.648;2023-03-01T00:06:18;0.60;99.90
29241;DHT22;16268;49.880;8.648;2023-03-01T00:08:44;0.60;99.90
29241;DHT22;16268;49.880;8.648;2023-03-01T00:11:27;0.70;99.90
29241;DHT22;16268;49.880;8.648;2023-03-01T00:13:56;0.70;99.90
29241;DHT22;16268;49.880;8.648;2023-03-01T00:16:25;0.60;99.90
29241;DHT22;16268;49.880;8.648;2023-03-01T00:18:50;0.60;99.90
29241;DHT22;16268;49.880;8.648;2023-03-01T00:21:16;0.60;99.90
29241;DHT22;16268;49.880;8.648;2023-03-01T00:23:42;0.60;99.90
29241;DHT22;16268;49.880;8.648;2023-03-01T00:26:10;0.60;99.90
29241;DHT22;16268;49.880;8.648;2023-03-01T00:28:39;0.50;99.90
29241;DHT22;16268;49.880;8.648;2023-03-01T00:31:14;0.50;99.90
29241;DHT22;16268;49.880;8.648;2023-03-01T00:33:40;0.50;99.90
29241;DHT22;16268;49.880;8.648;2023-03-01T00:36:06;0.50;99.90
29241;DHT22;16268;49.880;8.648;2023-03-01T00:38:38;0.50;99.90
29241;DHT22;16268;49.880;8.648;2023-03-01T00:41:05;0.50;99.90
29241;DHT22;16268;49.880;8.648;2023-03-01T00:43:31;0.50;99.90
29241;DHT22;16268;49.880;8.648;2023-03-01T00:46:05;0.40;99.90
29241;DHT22;16268;49.880;8.648;2023-03-01T00:48:31;0.40;99.90
29241;DHT22;16268;49.880;8.648;2023-03-01T00:50:56;0.40;99.90
29241;DHT22;16268;49.880;8.648;2023-03-01T00:53:22;0.40;99.90
29241;DHT22;16268;49.880;8.648;2023-03-01T00:55:48;0.40;99.90
29241;DHT22;16268;49.880;8.648;2023-03-01T00:58:13;0.40;99.90
29241;DHT22;16268;49.880;8.648;2023-03-01T01:00:39;0.50;99.90
29241;DHT22;16268;49.880;8.648;2023-03-01T01:03:04;0.50;99.90
29241;DHT22;16268;49.880;8.648;2023-03-01T01:05:30;0.50;99.90
29241;DHT22;16268;49.880;8.648;2023-03-01T01:07:56;0.60;99.90
29241;DHT22;16268;49.880;8.648;2023-03-01T01:10:21;0.50;99.90
29241;DHT22;16268;49.880;8.648;2023-03-01T01:12:47;0.50;99.90
29241;DHT22;16268;49.880;8.648;2023-03-01T01:15:13;0.50;99.90
29241;DHT22;16268;49.880;8.648;2023-03-01T01:17:40;0.60;99.90
29241;DHT22;16268;49.880;8.648;2023-03-01T01:20:09;0.60;99.90
29241;DHT22;16268;49.880;8.648;2023-03-01T01:22:34;0.50;99.90
29241;DHT22;16268;49.880;8.648;2023-03-01T01:25:00;0.50;99.90
29241;DHT22;16268;49.880;8.648;2023-03-01T01:27:25;0.50;99.90
29241;DHT22;16268;49.880;8.648;2023-03-01T01:29:53;0.40;99.90
29241;DHT22;16268;49.880;8.648;2023-03-01T01:32:18;0.50;99.90
29241;DHT22;16268;49.880;8.648;2023-03-01T01:34:44;0.40;99.90
29241;DHT22;16268;49.880;8.648;2023-03-01T01:37:09;0.40;99.90
29241;DHT22;16268;49.880;8.648;2023-03-01T01:39:35;0.40;99.90
29241;DHT22;16268;49.880;8.648;2023-03-01T01:42:01;0.50;99.90
29241;DHT22;16268;49.880;8.648;2023-03-01T01:44:28;0.50;99.90
29241;DHT22;16268;49.880;8.648;2023-03-01T01:47:10;0.60;99.90
29241;DHT22;16268;49.880;8.648;2023-03-01T01:49:59;0.50;99.90
29241;DHT22;16268;49.880;8.648;2023-03-01T01:52:31;0.50;99.90
29241;DHT22;16268;49.880;8.648;2023-03-01T01:55:10;0.50;99.90
29241;DHT22;16268;49.880;8.648;2023-03-01T01:57:49;0.50;99.90
29241;DHT22;16268;49.880;8.648;2023-03-01T02:00:19;0.40;99.90
29241;DHT22;16268;49.880;8.648;2023-03-01T02:02:47;0.40;99.90
29241;DHT22;16268;49.880;8.648;2023-03-01T02:07:45;0.40;99.90
29241;DHT22;16268;49.880;8.648;2023-03-01T02:10:11;0.30;99.90
29241;DHT22;16268;49.880;8.648;2023-03-01T02:12:37;0.30;99.90
29241;DHT22;16268;49.880;8.648;2023-03-01T02:15:04;0.20;99.90
29241;DHT22;16268;49.880;8.648;2023-03-01T02:17:31;0.20;99.90
29241;DHT22;16268;49.880;8.648;2023-03-01T02:20:00;0.10;99.90
29241;DHT22;16268;49.880;8.648;2023-03-01T02:22:33;0.10;99.90
29241;DHT22;16268;49.880;8.648;2023-03-01T02:27:38;0.10;99.90
29241;DHT22;16268;49.880;8.648;2023-03-01T02:30:06;0.10;99.90
29241;DHT22;16268;49.880;8.648;2023-03-01T02:32:33;0.10;99.90
29241;DHT22;16268;49.880;8.648;2023-03-01T02:34:59;0.10;99.90
29241;DHT22;16268;49.880;8.648;2023-03-01T02:37:26;0.10;99.90
29241;DHT22;16268;49.880;8.648;2023-03-01T02:39:58;0.10;99.90
29241;DHT22;16268;49.880;8.648;2023-03-01T02:42:28;0.10;99.90
29241;DHT22;16268;49.880;8.648;2023-03-01T02:44:56;0.20;99.90
29241;DHT22;16268;49.880;8.648;2023-03-01T02:47:21;0.20;99.90
29241;DHT22;16268;49.880;8.648;2023-03-01T02:49:47;0.20;99.90
29241;DHT22;16268;49.880;8.648;2023-03-01T02:52:37;0.30;99.90
29241;DHT22;16268;49.880;8.648;2023-03-01T02:55:11;0.30;99.90
29241;DHT22;16268;49.880;8.648;2023-03-01T02:57:40;0.40;99.90
29241;DHT22;16268;49.880;8.648;2023-03-01T03:00:09;0.30;99.90
29241;DHT22;16268;49.880;8.648;2023-03-01T03:02:35;0.30;99.90
29241;DHT22;16268;49.880;8.648;2023-03-01T03:05:10;0.30;99.90
29241;DHT22;16268;49.880;8.648;2023-03-01T03:07:40;0.30;99.90
29241;DHT22;16268;49.880;8.648;2023-03-01T03:10:06;0.30;99.90
29241;DHT22;16268;49.880;8.648;2023-03-01T03:12:32;0.40;99.90
29241;DHT22;16268;49.880;8.648;2023-03-01T03:14:58;0.30;99.90
29241;DHT22;16268;49.880;8.648;2023-03-01T03:17:23;0.30;99.90
29241;DHT22;16268;49.880;8.648;2023-03-01T03:19:49;0.30;99.90
29241;DHT22;16268;49.880;8.648;2023-03-01T03:22:15;0.30;99.90
29241;DHT22;16268;49.880;8.648;2023-03-01T03:24:40;0.30;99.90
29241;DHT22;16268;49.880;8.648;2023-03-01T03:27:06;0.40;99.90
29241;DHT22;16268;49.880;8.648;2023-03-01T03:29:32;0.40;99.90
29241;DHT22;16268;49.880;8.648;2023-03-01T03:31:58;0.40;99.90
29241;DHT22;16268;49.880;8.648;2023-03-01T03:34:23;0.40;99.90
29241;DHT22;16268;49.880;8.648;2023-03-01T03:36:53;0.30;99.90
29241;DHT22;16268;49.880;8.648;2023-03-01T03:39:23;0.30;99.90
29241;DHT22;16268;49.880;8.648;2023-03-01T03:41:48;0.30;99.90
29241;DHT22;16268;49.880;8.648;2023-03-01T03:44:14;0.20;99.90
29241;DHT22;16268;49.880;8.648;2023-03-01T03:46:39;0.30;99.90
29241;DHT22;16268;49.880;8.648;2023-03-01T03:49:05;0.30;99.90
29241;DHT22;16268;49.880;8.648;2023-03-01T03:51:30;0.30;99.90
29241;DHT22;16268;49.880;8.648;2023-03-01T03:53:56;0.40;99.90
29241;DHT22;16268;49.880;8.648;2023-03-01T03:56:21;0.40;99.90
29241;DHT22;16268;49.880;8.648;2023-03-01T03:58:54;0.40;99.90
29241;DHT22;16268;49.880;8.648;2023-03-01T04:01:20;0.30;99.90
29241;DHT22;16268;49.880;8.648;2023-03-01T04:03:45;0.30;99.90
29241;DHT22;16268;49.880;8.648;2023-03-01T04:06:13;0.30;99.90
29241;DHT22;16268;49.880;8.648;2023-03-01T04:08:39;0.30;99.90
29241;DHT22;16268;49.880;8.648;2023-03-01T04:11:04;0.20;99.90
29241;DHT22;16268;49.880;8.648;2023-03-01T04:13:50;0.30;99.90
29241;DHT22;16268;49.880;8.648;2023-03-01T04:16:16;0.30;99.90
29241;DHT22;16268;49.880;8.648;2023-03-01T04:18:42;0.20;99.90
29241;DHT22;16268;49.880;8.648;2023-03-01T04:21:07;0.20;99.90
29241;DHT22;16268;49.880;8.648;2023-03-01T04:23:33;0.30;99.90
29241;DHT22;16268;49.880;8.648;2023-03-01T04:25:59;0.20;99.90
29241;DHT22;16268;49.880;8.648;2023-03-01T04:28:32;0.20;99.90
29241;DHT22;16268;49.880;8.648;2023-03-01T04:31:09;0.20;99.90
29241;DHT22;16268;49.880;8.648;2023-03-01T04:33:46;0.20;99.90
29241;DHT22;16268;49.880;8.648;2023-03-01T04:36:14;0.20;99.90
29241;DHT22;16268;49.880;8.648;2023-03-01T04:38:40;0.20;99.90
29241;DHT22;16268;49.880;8.648;2023-03-01T04:41:08;0.20;99.90
29241;DHT22;16268;49.880;8.648;2023-03-01T04:43:34;0.20;99.90
29241;DHT22;16268;49.880;8.648;2023-03-01T04:46:08;0.20;99.90
29241;DHT22;16268;49.880;8.648;2023-03-01T04:48:36;0.10;99.90
29241;DHT22;16268;49.880;8.648;2023-03-01T04:51:02;0.20;99.90
29241;DHT22;16268;49.880;8.648;2023-03-01T04:53:28;0.20;99.90
29241;DHT22;16268;49.880;8.648;2023-03-01T04:55:55;0.20;99.90
29241;DHT22;16268;49.880;8.648;2023-03-01T04:58:25;0.20;99.90
29241;DHT22;16268;49.880;8.648;2023-03-01T05:00:51;0.30;99.90
29241;DHT22;16268;49.880;8.648;2023-03-01T05:03:17;0.30;99.90
29241;DHT22;16268;49.880;8.648;2023-03-01T05:05:44;0.30;99.90
29241;DHT22;16268;49.880;8.648;2023-03-01T05:08:11;0.40;99.90
29241;DHT22;16268;49.880;8.648;2023-03-01T05:10:51;0.40;99.90
29241;DHT22;16268;49.880;8.648;2023-03-01T05:13:18;0.30;99.90
29241;DHT22;16268;49.880;8.648;2023-03-01T05:16:01;0.40;99.90
29241;DHT22;16268;49.880;8.648;2023-03-01T05:18:31;0.40;99.90
29241;DHT22;16268;49.880;8.648;2023-03-01T05:21:07;0.40;99.90
29241;DHT22;16268;49.880;8.648;2023-03-01T05:23:34;0.40;99.90
29241;DHT22;16268;49.880;8.648;2023-03-01T05:26:01;0.40;99.90
29241;DHT22;16268;49.880;8.648;2023-03-01T05:28:29;0.50;99.90
29241;DHT22;16268;49.880;8.648;2023-03-01T05:30:55;0.50;99.90
29241;DHT22;16268;49.880;8.648;2023-03-01T05:33:21;0.50;99.90
29241;DHT22;16268;49.880;8.648;2023-03-01T05:35:48;0.40;99.90
29241;DHT22;16268;49.880;8.648;2023-03-01T05:38:15;0.50;99.90
29241;DHT22;16268;49.880;8.648;2023-03-01T05:40:45;0.40;99.90
29241;DHT22;16268;49.880;8.648;2023-03-01T05:43:12;0.40;99.90
29241;DHT22;16268;49.880;8.648;2023-03-01T05:45:39;0.50;99.90
29241;DHT22;16268;49.880;8.648;2023-03-01T05:48:06;0.50;99.90
29241;DHT22;16268;49.880;8.648;2023-03-01T05:50:35;0.50;99.90
29241;DHT22;16268;49.880;8.648;2023-03-01T05:53:03;0.50;99.90
29241;DHT22;16268;49.880;8.648;2023-03-01T05:55:33;0.50;99.90
29241;DHT22;16268;49.880;8.648;2023-03-01T05:58:00;0.50;99.90
29241;DHT22;16268;49.880;8.648;2023-03-01T06:00:26;0.40;99.90
29241;DHT22;16268;49.880;8.648;2023-03-01T06:02:54;0.40;99.90
29241;DHT22;16268;49.880;8.648;2023-03-01T06:05:20;0.50;99.90
29241;DHT22;16268;49.880;8.648;2023-03-01T06:07:46;0.50;99.90
29241;DHT22;16268;49.880;8.648;2023-03-01T06:10:13;0.50;99.90
29241;DHT22;16268;49.880;8.648;2023-03-01T06:12:40;0.50;99.90
29241;DHT22;16268;49.880;8.648;2023-03-01T06:15:06;0.50;99.90
29241;DHT22;16268;49.880;8.648;2023-03-01T06:17:37;0.50;99.90
29241;DHT22;16268;49.880;8.648;2023-03-01T06:22:37;0.50;99.90
29241;DHT22;16268;49.880;8.648;2023-03-01T06:25:03;0.50;99.90
29241;DHT22;16268;49.880;8.648;2023-03-01T06:27:29;0.60;99.90
29241;DHT22;16268;49.880;8.648;2023-03-01T06:29:55;0.60;99.90
29241;DHT22;16268;49.880;8.648;2023-03-01T06:32:20;0.60;99.90
29241;DHT22;16268;49.880;8.648;2023-03-01T06:34:46;0.60;99.90
29241;DHT22;16268;49.880;8.648;2023-03-01T06:37:12;0.50;99.90
29241;DHT22;16268;49.880;8.648;2023-03-01T06:39:37;0.60;99.90
29241;DHT22;16268;49.880;8.648;2023-03-01T06:42:03;0.60;99.90
29241;DHT22;16268;49.880;8.648;2023-03-01T06:44:29;0.70;99.90
29241;DHT22;16268;49.880;8.648;2023-03-01T06:46:54;0.80;99.90
29241;DHT22;16268;49.880;8.648;2023-03-01T06:49:20;0.70;99.90
29241;DHT22;16268;49.880;8.648;2023-03-01T06:51:46;0.70;99.90
29241;DHT22;16268;49.880;8.648;2023-03-01T06:54:12;0.80;99.90
29241;DHT22;16268;49.880;8.648;2023-03-01T06:56:38;0.80;99.90
29241;DHT22;16268;49.880;8.648;2023-03-01T06:59:03;0.90;99.90
29241;DHT22;16268;49.880;8.648;2023-03-01T07:01:30;0.90;99.90
29241;DHT22;16268;49.880;8.648;2023-03-01T07:03:56;0.90;99.90
29241;DHT22;16268;49.880;8.648;2023-03-01T07:06:21;0.90;99.90
29241;DHT22;16268;49.880;8.648;2023-03-01T07:08:47;1.00;99.90
29241;DHT22;16268;49.880;8.648;2023-03-01T07:11:13;1.10;99.90
29241;DHT22;16268;49.880;8.648;2023-03-01T07:13:39;1.10;99.90
29241;DHT22;16268;49.880;8.648;2023-03-01T07:16:04;1.10;99.90
29241;DHT22;16268;49.880;8.648;2023-03-01T07:18:30;1.20;99.90
29241;DHT22;16268;49.880;8.648;2023-03-01T07:20:56;1.20;99.90
29241;DHT22;16268;49.880;8.648;2023-03-01T07:23:21;1.20;99.90
29241;DHT22;16268;49.880;8.648;2023-03-01T07:25:54;1.30;99.90
29241;DHT22;16268;49.880;8.648;2023-03-01T07:28:20;1.30;99.90
29241;DHT22;16268;49.880;8.648;2023-03-01T07:30:45;1.40;99.90
29241;DHT22;16268;49.880;8.648;2023-03-01T07:33:11;1.50;99.90
29241;DHT22;16268;49.880;8.648;2023-03-01T07:35:37;1.50;99.90
29241;DHT22;16268;49.880;8.648;2023-03-01T07:38:02;1.60;99.90
29241;DHT22;16268;49.880;8.648;2023-03-01T07:40:28;1.70;99.90
29241;DHT22;16268;49.880;8.648;2023-03-01T07:42:57;1.70;99.90
29241;DHT22;16268;49.880;8.648;2023-03-01T07:45:23;1.90;99.90
29241;DHT22;16268;49.880;8.648;2023-03-01T07:47:51;1.90;99.90
29241;DHT22;16268;49.880;8.648;2023-03-01T07:50:17;2.00;99.90
29241;DHT22;16268;49.880;8.648;2023-03-01T07:52:45;2.10;99.90
29241;DHT22;16268;49.880;8.648;2023-03-01T07:55:11;2.20;99.90
29241;DHT22;16268;49.880;8.648;2023-03-01T08:13:29;2.50;99.90
29241;DHT22;16268;49.880;8.648;2023-03-01T08:16:26;2.50;99.90
29241;DHT22;16268;49.880;8.648;2023-03-01T08:18:51;2.60;99.90
29241;DHT22;16268;49.880;8.648;2023-03-01T08:21:18;2.60;99.90
29241;DHT22;16268;49.880;8.648;2023-03-01T08:23:44;2.70;99.90
29241;DHT22;16268;49.880;8.648;2023-03-01T08:26:18;2.70;99.90
29241;DHT22;16268;49.880;8.648;2023-03-01T08:28:44;2.80;99.90
29241;DHT22;16268;49.880;8.648;2023-03-01T08:31:18;2.80;99.90
29241;DHT22;16268;49.880;8.648;2023-03-01T08:33:45;3.00;99.90
29241;DHT22;16268;49.880;8.648;2023-03-01T08:36:16;3.00;99.90
29241;DHT22;16268;49.880;8.648;2023-03-01T08:38:42;3.10;99.90
29241;DHT22;16268;49.880;8.648;2023-03-01T08:41:07;3.20;99.90
29241;DHT22;16268;49.880;8.648;2023-03-01T08:43:33;3.30;99.90
29241;DHT22;16268;49.880;8.648;2023-03-01T08:45:58;3.40;99.90
29241;DHT22;16268;49.880;8.648;2023-03-01T08:48:24;3.70;99.90
29241;DHT22;16268;49.880;8.648;2023-03-01T08:50:50;4.30;99.90
29241;DHT22;16268;49.880;8.648;2023-03-01T08:53:18;4.40;99.90
29241;DHT22;16268;49.880;8.648;2023-03-01T08:55:44;4.60;99.90
29241;DHT22;16268;49.880;8.648;2023-03-01T08:58:09;4.90;99.90
29241;DHT22;16268;49.880;8.648;2023-03-01T09:00:35;5.20;99.90
29241;DHT22;16268;49.880;8.648;2023-03-01T09:03:01;5.50;99.90
29241;DHT22;16268;49.880;8.648;2023-03-01T09:05:26;6.10;99.90
29241;DHT22;16268;49.880;8.648;2023-03-01T09:07:52;6.40;99.90
29241;DHT22;16268;49.880;8.648;2023-03-01T09:10:17;6.60;99.90
29241;DHT22;16268;49.880;8.648;2023-03-01T09:12:43;6.50;99.90
29241;DHT22;16268;49.880;8.648;2023-03-01T09:15:09;6.50;99.90
29241;DHT22;16268;49.880;8.648;2023-03-01T09:17:35;6.10;99.90
29241;DHT22;16268;49.880;8.648;2023-03-01T09:20:00;6.30;99.90
29241;DHT22;16268;49.880;8.648;2023-03-01T09:22:26;6.30;99.90
29241;DHT22;16268;49.880;8.648;2023-03-01T09:24:51;6.50;99.90
29241;DHT22;16268;49.880;8.648;2023-03-01T09:27:17;6.90;99.90
29241;DHT22;16268;49.880;8.648;2023-03-01T09:29:44;7.10;99.90
29241;DHT22;16268;49.880;8.648;2023-03-01T09:32:10;6.80;99.90
29241;DHT22;16268;49.880;8.648;2023-03-01T09:34:37;7.20;99.90
29241;DHT22;16268;49.880;8.648;2023-03-01T09:37:22;7.10;99.90
29241;DHT22;16268;49.880;8.648;2023-03-01T09:39:48;6.90;99.90
29241;DHT22;16268;49.880;8.648;2023-03-01T09:42:13;7.30;99.90
29241;DHT22;16268;49.880;8.648;2023-03-01T09:44:47;6.90;99.90
29241;DHT22;16268;49.880;8.648;2023-03-01T09:47:20;6.90;99.90
29241;DHT22;16268;49.880;8.648;2023-03-01T09:55:01;7.70;99.70
29241;DHT22;16268;49.880;8.648;2023-03-01T09:57:48;7.80;99.10
29241;DHT22;16268;49.880;8.648;2023-03-01T10:00:28;8.20;98.90
29241;DHT22;16268;49.880;8.648;2023-03-01T10:05:52;8.00;97.80
29241;DHT22;16268;49.880;8.648;2023-03-01T10:08:41;8.20;98.30
29241;DHT22;16268;49.880;8.648;2023-03-01T10:11:39;8.70;97.50
29241;DHT22;16268;49.880;8.648;2023-03-01T10:14:35;8.60;96.30
29241;DHT22;16268;49.880;8.648;2023-03-01T10:17:19;8.30;97.30
29241;DHT22;16268;49.880;8.648;2023-03-01T10:19:47;8.30;96.60
29241;DHT22;16268;49.880;8.648;2023-03-01T10:22:19;8.40;96.50
29241;DHT22;16268;49.880;8.648;2023-03-01T10:24:47;8.30;96.80
29241;DHT22;16268;49.880;8.648;2023-03-01T10:27:33;7.80;96.90
29241;DHT22;16268;49.880;8.648;2023-03-01T10:32:52;8.40;96.80
29241;DHT22;16268;49.880;8.648;2023-03-01T10:40:27;7.90;94.40
29241;DHT22;16268;49.880;8.648;2023-03-01T10:42:53;7.70;95.40
29241;DHT22;16268;49.880;8.648;2023-03-01T10:45:37;7.60;95.60
29241;DHT22;16268;49.880;8.648;2023-03-01T10:50:47;8.10;95.50
29241;DHT22;16268;49.880;8.648;2023-03-01T10:53:40;8.20;94.00
29241;DHT22;16268;49.880;8.648;2023-03-01T10:56:11;8.20;94.10
29241;DHT22;16268;49.880;8.648;2023-03-01T10:58:41;8.10;93.80
29241;DHT22;16268;49.880;8.648;2023-03-01T11:03:42;8.20;94.30
29241;DHT22;16268;49.880;8.648;2023-03-01T11:08:44;8.20;93.80
29241;DHT22;16268;49.880;8.648;2023-03-01T11:11:14;8.30;92.80
29241;DHT22;16268;49.880;8.648;2023-03-01T11:13:54;8.30;92.70
29241;DHT22;16268;49.880;8.648;2023-03-01T11:16:35;8.20;92.60
29241;DHT22;16268;49.880;8.648;2023-03-01T11:24:29;8.40;91.50
29241;DHT22;16268;49.880;8.648;2023-03-01T11:26:55;8.40;92.10
29241;DHT22;16268;49.880;8.648;2023-03-01T11:29:44;8.20;93.20
29241;DHT22;16268;49.880;8.648;2023-03-01T11:32:13;8.30;94.60
29241;DHT22;16268;49.880;8.648;2023-03-01T11:34:58;8.60;94.10
29241;DHT22;16268;49.880;8.648;2023-03-01T11:43:23;8.40;94.90
29241;DHT22;16268;49.880;8.648;2023-03-01T11:48:48;8.30;93.20
29241;DHT22;16268;49.880;8.648;2023-03-01T11:57:41;8.30;94.00
29241;DHT22;16268;49.880;8.648;2023-03-01T12:00:23;8.30;93.40
29241;DHT22;16268;49.880;8.648;2023-03-01T12:11:15;8.20;93.10
29241;DHT22;16268;49.880;8.648;2023-03-01T12:19:30;8.10;93.00
29241;DHT22;16268;49.880;8.648;2023-03-01T12:24:44;8.20;93.30
29241;DHT22;16268;49.880;8.648;2023-03-01T12:30:09;8.30;92.90
29241;DHT22;16268;49.880;8.648;2023-03-01T12:33:14;8.40;92.40
29241;DHT22;16268;49.880;8.648;2023-03-01T12:36:10;8.50;92.10
29241;DHT22;16268;49.880;8.648;2023-03-01T12:38:49;8.50;91.50
29241;DHT22;16268;49.880;8.648;2023-03-01T12:49:31;8.50;91.00
29241;DHT22;16268;49.880;8.648;2023-03-01T12:52:17;8.70;90.70
29241;DHT22;16268;49.880;8.648;2023-03-01T12:54:47;8.60;90.20
29241;DHT22;16268;49.880;8.648;2023-03-01T12:57:34;8.60;90.40
29241;DHT22;16268;49.880;8.648;2023-03-01T13:02:58;8.60;90.10
29241;DHT22;16268;49.880;8.648;2023-03-01T13:08:39;8.70;90.00
29241;DHT22;16268;49.880;8.648;2023-03-01T13:11:19;8.80;89.30
29241;DHT22;16268;49.880;8.648;2023-03-01T13:13:45;8.80;88.40
29241;DHT22;16268;49.880;8.648;2023-03-01T13:19:07;8.70;87.90
29241;DHT22;16268;49.880;8.648;2023-03-01T13:21:33;8.70;88.80
29241;DHT22;16268;49.880;8.648;2023-03-01T13:23:59;8.70;90.00
29241;DHT22;16268;49.880;8.648;2023-03-01T13:26:25;8.70;90.00
29241;DHT22;16268;49.880;8.648;2023-03-01T13:28:52;8.80;89.90
29241;DHT22;16268;49.880;8.648;2023-03-01T13:33:49;8.80;90.00
29241;DHT22;16268;49.880;8.648;2023-03-01T13:36:45;8.90;89.70
29241;DHT22;16268;49.880;8.648;2023-03-01T13:39:27;9.00;89.20
29241;DHT22;16268;49.880;8.648;2023-03-01T13:41:54;8.90;88.50
29241;DHT22;16268;49.880;8.648;2023-03-01T13:49:47;9.10;88.80
29241;DHT22;16268;49.880;8.648;2023-03-01T13:54:53;9.00;87.30
29241;DHT22;16268;49.880;8.648;2023-03-01T13:57:21;8.90;87.30
29241;DHT22;16268;49.880;8.648;2023-03-01T13:59:50;9.00;88.00
29241;DHT22;16268;49.880;8.648;2023-03-01T14:02:16;9.10;86.80
29241;DHT22;16268;49.880;8.648;2023-03-01T14:04:42;9.10;86.40
29241;DHT22;16268;49.880;8.648;2023-03-01T14:07:12;9.20;86.00
29241;DHT22;16268;49.880;8.648;2023-03-01T14:09:41;9.00;86.10
29241;DHT22;16268;49.880;8.648;2023-03-01T14:14:50;8.90;86.60
29241;DHT22;16268;49.880;8.648;2023-03-01T14:17:34;9.00;86.70
29241;DHT22;16268;49.880;8.648;2023-03-01T14:20:11;9.00;86.90
29241;DHT22;16268;49.880;8.648;2023-03-01T14:22:41;9.00;87.40
29241;DHT22;16268;49.880;8.648;2023-03-01T14:27:59;8.90;87.80
29241;DHT22;16268;49.880;8.648;2023-03-01T14:30:30;8.90;87.10
29241;DHT22;16268;49.880;8.648;2023-03-01T14:32:58;8.80;87.60
29241;DHT22;16268;49.880;8.648;2023-03-01T14:35:28;8.90;87.60
29241;DHT22;16268;49.880;8.648;2023-03-01T14:37:53;9.00;87.40
29241;DHT22;16268;49.880;8.648;2023-03-01T14:42:55;8.90;87.50
29241;DHT22;16268;49.880;8.648;2023-03-01T14:45:22;8.80;88.00
29241;DHT22;16268;49.880;8.648;2023-03-01T14:47:49;8.80;88.20
29241;DHT22;16268;49.880;8.648;2023-03-01T14:50:23;8.90;88.50
29241;DHT22;16268;49.880;8.648;2023-03-01T14:52:52;8.90;88.70
29241;DHT22;16268;49.880;8.648;2023-03-01T14:55:21;8.80;89.00
29241;DHT22;16268;49.880;8.648;2023-03-01T14:57:49;8.80;89.10
29241;DHT22;16268;49.880;8.648;2023-03-01T15:00:19;8.70;89.50
29241;DHT22;16268;49.880;8.648;2023-03-01T15:02:47;8.80;90.10
29241;DHT22;16268;49.880;8.648;2023-03-01T15:05:14;8.80;90.30
29241;DHT22;16268;49.880;8.648;2023-03-01T15:07:42;8.70;90.40
29241;DHT22;16268;49.880;8.648;2023-03-01T15:10:54;8.70;90.60
29241;DHT22;16268;49.880;8.648;2023-03-01T15:13:25;8.70;90.60
29241;DHT22;16268;49.880;8.648;2023-03-01T15:16:00;8.60;90.50
29241;DHT22;16268;49.880;8.648;2023-03-01T15:18:28;8.60;90.70
29241;DHT22;16268;49.880;8.648;2023-03-01T15:20:55;8.50;91.00
29241;DHT22;16268;49.880;8.648;2023-03-01T15:23:30;8.50;90.90
29241;DHT22;16268;49.880;8.648;2023-03-01T15:25:56;8.50;91.10
29241;DHT22;16268;49.880;8.648;2023-03-01T15:28:34;8.50;91.20
29241;DHT22;16268;49.880;8.648;2023-03-01T15:31:04;8.50;91.40
29241;DHT22;16268;49.880;8.648;2023-03-01T15:33:38;8.50;91.20
29241;DHT22;16268;49.880;8.648;2023-03-01T15:38:56;8.50;91.60
29241;DHT22;16268;49.880;8.648;2023-03-01T15:41:30;8.50;91.40
29241;DHT22;16268;49.880;8.648;2023-03-01T15:44:00;8.50;91.40
29241;DHT22;16268;49.880;8.648;2023-03-01T15:46:31;8.50;91.50
29241;DHT22;16268;49.880;8.648;2023-03-01T15:49:24;8.50;91.50
29241;DHT22;16268;49.880;8.648;2023-03-01T15:51:53;8.50;91.70
29241;DHT22;16268;49.880;8.648;2023-03-01T15:54:22;8.50;91.40
29241;DHT22;16268;49.880;8.648;2023-03-01T15:56:49;8.50;91.40
29241;DHT22;16268;49.880;8.648;2023-03-01T15:59:15;8.50;91.50
29241;DHT22;16268;49.880;8.648;2023-03-01T16:01:41;8.50;91.70
29241;DHT22;16268;49.880;8.648;2023-03-01T16:04:10;8.40;91.90
29241;DHT22;16268;49.880;8.648;2023-03-01T16:06:38;8.40;92.00
29241;DHT22;16268;49.880;8.648;2023-03-01T16:09:04;8.40;92.20
29241;DHT22;16268;49.880;8.648;2023-03-01T16:11:30;8.40;92.10
29241;DHT22;16268;49.880;8.648;2023-03-01T16:13:57;8.30;92.40
29241;DHT22;16268;49.880;8.648;2023-03-01T16:16:23;8.30;92.60
29241;DHT22;16268;49.880;8.648;2023-03-01T16:18:49;8.30;92.50
29241;DHT22;16268;49.880;8.648;2023-03-01T16:21:21;8.20;92.90
29241;DHT22;16268;49.880;8.648;2023-03-01T16:23:47;8.10;92.80
29241;DHT22;16268;49.880;8.648;2023-03-01T16:26:13;8.10;93.00
29241;DHT22;16268;49.880;8.648;2023-03-01T16:28:41;8.10;93.20
29241;DHT22;16268;49.880;8.648;2023-03-01T16:31:06;8.00;93.60
29241;DHT22;16268;49.880;8.648;2023-03-01T16:33:32;7.90;93.60
29241;DHT22;16268;49.880;8.648;2023-03-01T16:36:00;7.90;93.70
29241;DHT22;16268;49.880;8.648;2023-03-01T16:38:27;7.80;94.00
29241;DHT22;16268;49.880;8.648;2023-03-01T16:40:53;7.80;94.40
29241;DHT22;16268;49.880;8.648;2023-03-01T16:43:19;7.70;94.50
29241;DHT22;16268;49.880;8.648;2023-03-01T16:45:44;7.70;94.60
29241;DHT22;16268;49.880;8.648;2023-03-01T16:48:11;7.60;94.80
29241;DHT22;16268;49.880;8.648;2023-03-01T16:50:37;7.50;95.10
29241;DHT22;16268;49.880;8.648;2023-03-01T16:53:03;7.50;95.30
29241;DHT22;16268;49.880;8.648;2023-03-01T16:55:28;7.40;95.60
29241;DHT22;16268;49.880;8.648;2023-03-01T16:57:54;7.40;96.00
29241;DHT22;16268;49.880;8.648;2023-03-01T17:00:20;7.30;96.40
29241;DHT22;16268;49.880;8.648;2023-03-01T17:02:46;7.30;96.60
29241;DHT22;16268;49.880;8.648;2023-03-01T17:05:11;7.20;97.10
29241;DHT22;16268;49.880;8.648;2023-03-01T17:07:37;7.10;97.50
29241;DHT22;16268;49.880;8.648;2023-03-01T17:10:06;7.00;97.80
29241;DHT22;16268;49.880;8.648;2023-03-01T17:12:33;7.00;98.20
29241;DHT22;16268;49.880;8.648;2023-03-01T17:14:59;7.00;98.50
29241;DHT22;16268;49.880;8.648;2023-03-01T17:17:25;6.90;98.90
29241;DHT22;16268;49.880;8.648;2023-03-01T17:19:52;6.80;99.20
29241;DHT22;16268;49.880;8.648;2023-03-01T17:22:18;6.80;99.50
29241;DHT22;16268;49.880;8.648;2023-03-01T17:24:44;6.70;99.90
29241;DHT22;16268;49.880;8.648;2023-03-01T17:27:11;6.70;99.90
29241;DHT22;16268;49.880;8.648;2023-03-01T17:29:37;6.60;99.90
29241;DHT22;16268;49.880;8.648;2023-03-01T17:32:04;6.60;99.90
29241;DHT22;16268;49.880;8.648;2023-03-01T17:34:30;6.60;99.90
29241;DHT22;16268;49.880;8.648;2023-03-01T17:36:57;6.50;99.90
29241;DHT22;16268;49.880;8.648;2023-03-01T17:39:22;6.50;99.90
29241;DHT22;16268;49.880;8.648;2023-03-01T17:41:52;6.50;99.90
29241;DHT22;16268;49.880;8.648;2023-03-01T17:44:18;6.40;99.90
29241;DHT22;16268;49.880;8.648;2023-03-01T17:46:44;6.30;99.90
29241;DHT22;16268;49.880;8.648;2023-03-01T17:49:09;6.30;99.90
29241;DHT22;16268;49.880;8.648;2023-03-01T17:51:35;6.20;99.90
29241;DHT22;16268;49.880;8.648;2023-03-01T17:54:01;6.10;99.90
29241;DHT22;16268;49.880;8.648;2023-03-01T17:56:26;6.10;99.90
29241;DHT22;16268;49.880;8.648;2023-03-01T17:58:52;6.00;99.90
29241;DHT22;16268;49.880;8.648;2023-03-01T18:01:20;6.00;99.90
29241;DHT22;16268;49.880;8.648;2023-03-01T18:03:46;5.90;99.90